createdAt,value
2023-03-26T00:01:05.488Z,67.16
2023-03-26T00:03:54.271Z,67.11
2023-03-26T00:09:47.590Z,67.24
2023-03-26T00:12:33.296Z,67.15
2023-03-26T00:18:00.270Z,67.30
2023-03-26T00:20:45.973Z,67.44
2023-03-26T00:26:52.808Z,67.65
2023-03-26T00:29:39.301Z,67.79
2023-03-26T00:32:33.715Z,67.95
2023-03-26T00:41:54.962Z,68.45
2023-03-26T01:08:18.909Z,68.79
2023-03-26T01:11:13.532Z,68.78
2023-03-26T01:23:24.678Z,69.20
2023-03-26T01:26:31.279Z,68.74
2023-03-26T01:29:41.281Z,68.85
2023-03-26T01:32:39.079Z,69.21
2023-03-26T01:35:33.285Z,68.95
2023-03-26T01:38:24.285Z,69.73
2023-03-26T01:41:18.408Z,69.40
2023-03-26T01:44:27.970Z,69.36
2023-03-26T01:47:14.783Z,69.54
2023-03-26T01:50:00.351Z,69.48
2023-03-26T01:52:45.585Z,69.72
2023-03-26T01:55:49.061Z,70.13
2023-03-26T01:58:50.966Z,69.77
2023-03-26T02:04:45.790Z,69.60
2023-03-26T02:07:44.294Z,69.40
2023-03-26T02:10:35.069Z,69.49
2023-03-26T02:13:21.097Z,69.35
2023-03-26T02:16:09.376Z,69.17
2023-03-26T02:18:55.106Z,68.93
2023-03-26T02:27:56.338Z,68.77
2023-03-26T02:30:42.712Z,68.46
2023-03-26T02:33:29.175Z,68.48
2023-03-26T02:36:15.455Z,68.58
2023-03-26T02:39:00.699Z,68.55
2023-03-26T02:41:59.672Z,68.44
2023-03-26T02:44:46.157Z,68.33
2023-03-26T02:47:33.346Z,68.37
2023-03-26T02:56:50.195Z,68.38
2023-03-26T02:59:36.906Z,68.46
2023-03-26T03:02:24.066Z,68.72
2023-03-26T03:05:10.091Z,68.70
2023-03-26T03:07:57.422Z,68.51
2023-03-26T03:10:42.984Z,68.49
2023-03-26T03:13:28.574Z,68.71
2023-03-26T03:16:13.632Z,68.71
2023-03-26T03:18:58.603Z,68.36
2023-03-26T03:21:44.020Z,68.31
2023-03-26T03:27:23.492Z,68.36
2023-03-26T03:30:11.666Z,68.11
2023-03-26T03:33:01.666Z,68.54
2023-03-26T03:35:51.907Z,68.56
2023-03-26T03:38:39.967Z,68.22
2023-03-26T03:41:26.355Z,67.61
2023-03-26T03:44:12.804Z,67.27
2023-03-26T03:46:58.951Z,66.54
2023-03-26T03:49:45.243Z,66.53
2023-03-26T03:52:31.574Z,66.56
2023-03-26T03:55:18.292Z,66.37
2023-03-26T03:58:05.846Z,66.08
2023-03-26T04:00:51.969Z,65.70
2023-03-26T04:03:38.066Z,65.75
2023-03-26T04:06:24.575Z,65.43
2023-03-26T04:09:10.573Z,65.12
2023-03-26T04:15:04.080Z,65.66
2023-03-26T04:17:51.439Z,64.78
2023-03-26T04:20:40.546Z,65.01
2023-03-26T04:23:25.946Z,64.27
2023-03-26T04:26:16.138Z,64.41
2023-03-26T04:29:05.087Z,64.45
2023-03-26T04:31:58.008Z,63.76
2023-03-26T04:34:45.477Z,63.68
2023-03-26T04:40:19.841Z,63.56
2023-03-26T04:43:05.844Z,63.80
2023-03-26T04:45:51.573Z,63.70
2023-03-26T04:48:38.110Z,63.82
2023-03-26T04:51:34.342Z,64.17
2023-03-26T04:57:22.429Z,65.06
2023-03-26T05:00:14.355Z,64.89
2023-03-26T05:03:00.926Z,64.36
2023-03-26T05:05:46.220Z,64.63
2023-03-26T05:11:20.933Z,64.58
2023-03-26T05:14:07.587Z,64.43
2023-03-26T05:16:54.236Z,65.02
2023-03-26T05:19:41.655Z,65.19
2023-03-26T05:22:26.982Z,65.16
2023-03-26T05:25:12.441Z,65.23
2023-03-26T05:27:57.404Z,65.64
2023-03-26T05:30:42.983Z,65.45
2023-03-26T05:33:28.327Z,65.32
2023-03-26T05:36:18.430Z,65.53
2023-03-26T05:39:04.294Z,65.74
2023-03-26T05:41:50.038Z,65.56
2023-03-26T05:44:35.566Z,65.87
2023-03-26T05:47:20.875Z,65.67
2023-03-26T05:53:28.434Z,66.11
2023-03-26T05:56:13.854Z,66.01
2023-03-26T05:58:59.225Z,66.40
2023-03-26T06:01:44.340Z,66.34
2023-03-26T06:04:31.248Z,66.49
2023-03-26T06:07:17.529Z,66.27
2023-03-26T06:10:02.918Z,65.96
2023-03-26T06:12:49.082Z,66.18
2023-03-26T06:15:34.649Z,66.15
2023-03-26T06:18:20.183Z,65.76
2023-03-26T06:21:06.213Z,65.88
2023-03-26T06:23:51.923Z,65.43
2023-03-26T06:26:36.903Z,65.33
2023-03-26T06:29:21.793Z,64.88
2023-03-26T06:32:18.394Z,64.82
2023-03-26T06:35:04.423Z,64.34
2023-03-26T06:37:49.711Z,64.25
2023-03-26T06:40:35.128Z,64.17
2023-03-26T06:43:20.057Z,63.91
2023-03-26T06:46:05.759Z,63.79
2023-03-26T06:49:23.748Z,63.49
2023-03-26T06:52:08.974Z,63.68
2023-03-26T06:54:53.761Z,63.28
2023-03-26T06:57:38.827Z,63.41
2023-03-26T07:00:24.083Z,62.65
2023-03-26T07:03:10.680Z,63.18
2023-03-26T07:06:33.618Z,62.75
2023-03-26T07:09:18.630Z,62.37
2023-03-26T07:12:04.096Z,62.41
2023-03-26T07:18:04.336Z,62.69
2023-03-26T07:31:07.008Z,66.46
2023-03-26T07:34:47.047Z,67.06
2023-03-26T07:37:45.636Z,67.42
2023-03-26T07:40:42.904Z,67.53
2023-03-26T07:43:33.106Z,67.62
2023-03-26T07:46:25.325Z,67.04
2023-03-26T07:49:20.154Z,66.62
2023-03-26T07:52:06.654Z,66.03
2023-03-26T07:54:53.811Z,65.56
2023-03-26T07:58:03.800Z,65.23
2023-03-26T08:00:58.994Z,64.79
2023-03-26T08:04:27.140Z,64.16
2023-03-26T08:07:21.875Z,63.55
2023-03-26T08:13:23.852Z,62.39
2023-03-26T08:16:15.410Z,62.57
2023-03-26T08:21:51.476Z,62.64
2023-03-26T08:27:38.186Z,62.51
2023-03-26T08:30:26.775Z,61.66
2023-03-26T08:33:18.182Z,61.30
2023-03-26T08:36:04.578Z,60.69
2023-03-26T08:45:17.851Z,60.81
2023-03-26T08:48:30.510Z,60.68
2023-03-26T08:51:45.608Z,58.50
2023-03-26T09:00:57.774Z,54.82
2023-03-26T09:04:32.350Z,55.15
2023-03-26T09:07:51.909Z,54.18
2023-03-26T09:11:07.861Z,53.24
2023-03-26T09:14:05.014Z,53.70
2023-03-26T09:17:04.155Z,54.29
2023-03-26T09:20:04.257Z,54.25
2023-03-26T09:23:11.105Z,52.58
2023-03-26T09:26:08.483Z,51.65
2023-03-26T09:31:46.038Z,52.57
2023-03-26T09:43:53.779Z,48.56
2023-03-26T09:47:19.223Z,48.83
2023-03-26T09:53:51.703Z,48.94
2023-03-26T09:56:58.461Z,50.27
2023-03-26T10:00:03.949Z,50.50
2023-03-26T10:03:12.856Z,50.60
2023-03-26T10:06:35.162Z,51.02
2023-03-26T10:12:36.474Z,51.50
2023-03-26T10:15:31.890Z,51.26
2023-03-26T10:18:32.545Z,52.47
2023-03-26T10:25:00.179Z,52.10
2023-03-26T10:28:23.977Z,51.71
2023-03-26T10:31:43.002Z,52.15
2023-03-26T10:44:44.326Z,52.19
2023-03-26T10:47:39.054Z,51.71
2023-03-26T10:53:59.782Z,52.46
2023-03-26T10:56:48.818Z,52.73
2023-03-26T10:59:34.288Z,52.19
2023-03-26T11:12:34.365Z,50.77
2023-03-26T11:19:04.423Z,48.81
2023-03-26T11:22:11.182Z,48.61
2023-03-26T11:25:22.337Z,45.93
2023-03-26T11:28:26.057Z,42.39
2023-03-26T12:24:35.357Z,42.30
2023-03-26T12:36:24.930Z,43.92
2023-03-26T12:40:08.168Z,43.89
2023-03-26T12:44:48.305Z,43.86
2023-03-26T12:48:40.904Z,44.04
2023-03-26T12:55:21.084Z,43.45
2023-03-26T12:58:19.228Z,43.70
2023-03-26T13:01:19.042Z,44.18
2023-03-26T13:04:19.937Z,44.11
2023-03-26T13:07:55.053Z,43.97
2023-03-26T13:13:35.965Z,42.34
2023-03-26T13:23:35.236Z,43.43
2023-03-26T13:33:18.913Z,43.97
2023-03-26T13:46:17.404Z,43.96
2023-03-26T13:59:25.928Z,43.57
2023-03-26T14:05:50.169Z,43.99
2023-03-26T14:08:42.240Z,44.76
2023-03-26T14:11:45.942Z,44.54
2023-03-26T14:14:44.502Z,45.39
2023-03-26T14:17:47.854Z,45.58
2023-03-26T14:27:30.263Z,45.18
2023-03-26T14:43:34.841Z,46.03
2023-03-26T14:46:38.440Z,45.40
2023-03-26T14:56:12.850Z,47.70
2023-03-26T14:59:14.370Z,47.72
2023-03-26T15:02:21.395Z,47.90
2023-03-26T15:15:31.861Z,52.65
2023-03-26T15:21:43.285Z,53.49
2023-03-26T15:24:37.284Z,54.09
2023-03-26T15:37:10.439Z,55.04
2023-03-26T15:40:24.025Z,55.29
2023-03-26T15:43:14.723Z,56.43
2023-03-26T15:49:44.878Z,63.77
2023-03-26T15:55:37.209Z,65.01
2023-03-26T16:04:04.654Z,66.28
2023-03-26T16:20:22.740Z,68.74
2023-03-26T16:26:09.892Z,68.30
2023-03-26T16:29:21.970Z,68.56
2023-03-26T16:45:29.934Z,68.92
2023-03-26T16:55:18.104Z,69.52
2023-03-26T17:04:16.781Z,69.48
2023-03-26T17:10:48.934Z,70.48
2023-03-26T17:23:54.973Z,70.95
2023-03-26T17:29:49.108Z,70.97
2023-03-26T17:33:12.803Z,71.43
2023-03-26T17:36:20.678Z,71.22
2023-03-26T17:45:24.646Z,70.97
2023-03-26T17:48:20.631Z,71.18
2023-03-26T17:54:41.424Z,72.20
2023-03-26T18:00:27.722Z,71.87
2023-03-26T18:03:19.348Z,72.71
2023-03-26T18:06:12.429Z,73.28
2023-03-26T18:15:31.332Z,73.44
2023-03-26T18:18:41.603Z,73.41
2023-03-26T18:21:32.784Z,73.00
2023-03-26T18:37:22.307Z,72.52
2023-03-26T18:45:56.023Z,72.37
2023-03-26T18:48:43.983Z,72.65
2023-03-26T18:51:31.836Z,72.78
2023-03-26T18:54:20.110Z,72.66
2023-03-26T18:57:15.399Z,72.74
2023-03-26T19:00:20.198Z,72.68
2023-03-26T19:03:07.488Z,72.96
2023-03-26T19:05:55.238Z,72.39
2023-03-26T19:12:08.669Z,73.13
2023-03-26T19:15:20.726Z,73.10
2023-03-26T19:18:18.849Z,72.98
2023-03-26T19:21:05.296Z,73.02
2023-03-26T19:24:02.375Z,72.93
2023-03-26T19:26:51.620Z,73.09
2023-03-26T19:29:39.400Z,72.74
2023-03-26T19:32:34.236Z,73.21
2023-03-26T19:35:23.176Z,73.09
2023-03-26T19:38:20.264Z,73.37
2023-03-26T19:41:19.111Z,73.47
2023-03-26T19:44:17.857Z,73.62
2023-03-26T19:47:17.915Z,73.67
2023-03-26T19:50:26.257Z,73.65
2023-03-26T19:53:29.939Z,73.97
2023-03-26T19:56:18.027Z,73.40
2023-03-26T19:59:04.561Z,73.39
2023-03-26T20:01:49.901Z,73.63
2023-03-26T20:04:35.173Z,73.78
2023-03-26T20:07:35.586Z,73.69
2023-03-26T20:10:21.640Z,73.64
2023-03-26T20:16:27.319Z,73.61
2023-03-26T20:19:15.222Z,73.76
2023-03-26T20:22:02.885Z,73.87
2023-03-26T20:24:51.392Z,73.60
2023-03-26T20:27:38.669Z,74.22
2023-03-26T20:30:36.808Z,74.11
2023-03-26T20:33:25.209Z,74.04
2023-03-26T20:36:14.542Z,73.51
2023-03-26T20:41:58.994Z,73.89
2023-03-26T20:44:46.947Z,73.90
2023-03-26T20:47:31.940Z,73.98
2023-03-26T20:50:22.187Z,73.83
2023-03-26T20:53:14.756Z,74.01
2023-03-26T20:56:01.465Z,74.20
2023-03-26T20:59:10.015Z,74.23
2023-03-26T21:04:42.583Z,74.02
2023-03-26T21:07:28.619Z,73.90
2023-03-26T21:10:31.878Z,73.46
2023-03-26T21:13:36.079Z,73.63
2023-03-26T21:16:22.042Z,73.72
2023-03-26T21:19:09.594Z,73.86
2023-03-26T21:22:04.088Z,73.68
2023-03-26T21:25:00.787Z,73.74
2023-03-26T21:28:07.426Z,73.76
2023-03-26T21:30:53.023Z,73.90
2023-03-26T21:33:38.187Z,73.90
2023-03-26T21:36:30.799Z,73.65
2023-03-26T21:39:16.590Z,74.10
2023-03-26T21:42:05.073Z,73.77
2023-03-26T21:44:51.378Z,73.67
2023-03-26T21:50:29.702Z,74.13
2023-03-26T21:53:16.469Z,73.87
2023-03-26T21:56:16.042Z,74.21
2023-03-26T22:02:26.478Z,74.67
2023-03-26T22:18:13.944Z,74.68
2023-03-26T22:20:59.772Z,75.00
2023-03-26T22:23:52.054Z,75.25
2023-03-26T23:05:19.800Z,74.91
2023-03-26T23:17:58.338Z,74.66
2023-03-26T23:44:06.770Z,75.05
